Startpagina
METAR-TAF:

METAR-TAF

Vliegvelden :

Teheran, Iran

Teheran Mehrabad International Airport

breedte: 35-41N, lengte: 051-21E, hoogte: 1204 m

Actueel weer

Dit bericht is 29 minuten geleden gemaakt, om 08:30 UTC
Wind 6 kt uit het zuidzuidoosten
Temperatuur 30°C
Vochtigheid 10%
Druk 1019 hPa
Zicht: 8000 m
Weinig wolken op 4000 ft

METAR: OIII 230830Z 15006KT 8000 FEW040 30/M05 Q1018 A3008 NOSIG

Tijdstip: 12:29 (08:59 UTC)

Verwachting

Dit bericht is 3 uur en het 59 minuten geleden gemaakt, om 05:00 UTC
Verwachting geldig van 23 om 06 UTC tot 24 om 12 UTC
Wind 8 kt uit het zuiden
Zicht 10 km of meer
geen wolken onder 1500 m en geen cumulonimbus

TAF: OIII 230500Z 2306/2412 17004MPS CAVOK

Waarnemingen en weersverwachtingen van meer dan 4000 vliegvelden (METAR en TAF).

De beschikbare stations zijn de gele en rode punten op de kaart.

Ga met uw muis naar het station om de naam te zien.

Klik dan om waarnemingen en weersverwachtingen te zien.

kaart wijzigen: klik op de groene knoppen met een zwart kruis om in te zoomen, op de groene knop met een streepje om uit te zoomen of op de groene pijlen voor aangrenzende kaarten.


METAR-TAF: